Time;durP1;ratioP1;P1;durP2;ratioP2;P2;SDS_P1;SDS_P2;PMS_P1;PMS_P2;Temp;Humidity;BMP_temperature;BMP_pressure;BME280_temperature;BME280_humidity;BME280_pressure;Samples;Min_cycle;Max_cycle;Signal;HPM_P1;HPM_P2
2022/06/29 00:00:09;;;;;;;6.18;2.63;;;;;;;;;;5021327;28;20045;-64
2022/06/29 00:02:35;;;;;;;4.47;2.40;;;;;;;;;;5025883;28;20048;-64
2022/06/29 00:05:03;;;;;;;5.53;2.85;;;;;;;;;;4996236;28;20243;-64
2022/06/29 00:07:28;;;;;;;6.18;2.60;;;;;;;;;;5032243;28;20108;-64
2022/06/29 00:09:54;;;;;;;4.05;2.80;;;;;;;;;;5013730;28;20127;-65
2022/06/29 00:12:19;;;;;;;5.30;2.88;;;;;;;;;;5030717;28;20385;-65
2022/06/29 00:14:44;;;;;;;5.43;2.58;;;;;;;;;;5031846;28;20331;-65
2022/06/29 00:17:11;;;;;;;6.47;2.53;;;;;;;;;;5014044;28;20021;-65
2022/06/29 00:19:38;;;;;;;6.38;2.58;;;;;;;;;;5021819;28;20492;-65
2022/06/29 00:22:04;;;;;;;5.65;2.60;;;;;;;;;;5025989;28;20038;-65
2022/06/29 00:24:30;;;;;;;4.07;2.60;;;;;;;;;;5031177;28;20143;-65
2022/06/29 00:26:56;;;;;;;6.22;2.90;;;;;;;;;;5031937;28;20035;-65
2022/06/29 00:29:21;;;;;;;3.72;2.60;;;;;;;;;;5030866;28;20215;-65
2022/06/29 00:31:47;;;;;;;6.25;2.70;;;;;;;;;;5026077;28;20029;-65
2022/06/29 00:34:12;;;;;;;3.05;2.42;;;;;;;;;;5030947;28;20113;-64
2022/06/29 00:36:38;;;;;;;4.13;2.70;;;;;;;;;;5021343;28;20029;-65
2022/06/29 00:39:06;;;;;;;5.05;2.60;;;;;;;;;;5029305;28;20030;-65
2022/06/29 00:41:43;;;;;;;5.47;2.80;;;;;;;;;;5027855;28;20394;-65
2022/06/29 00:44:17;;;;;;;4.43;2.70;;;;;;;;;;5031273;28;20037;-65
2022/06/29 00:46:50;;;;;;;4.18;2.70;;;;;;;;;;5022970;28;20038;-65
2022/06/29 00:49:16;;;;;;;5.22;2.85;;;;;;;;;;5021509;28;20462;-66
2022/06/29 00:51:56;;;;;;;5.53;2.67;;;;;;;;;;5027296;28;20052;-65
2022/06/29 00:54:23;;;;;;;4.75;2.50;;;;;;;;;;5030003;28;20053;-66
2022/06/29 00:56:50;;;;;;;3.50;2.70;;;;;;;;;;5016786;28;20058;-65
2022/06/29 00:59:23;;;;;;;4.90;2.60;;;;;;;;;;5019874;28;20045;-65
2022/06/29 01:01:48;;;;;;;3.58;2.60;;;;;;;;;;5030111;28;20034;-65
2022/06/29 01:04:14;;;;;;;3.63;2.58;;;;;;;;;;5027203;28;20049;-65
2022/06/29 01:06:39;;;;;;;3.92;2.47;;;;;;;;;;5026686;28;20029;-65
2022/06/29 01:09:05;;;;;;;4.35;2.67;;;;;;;;;;5026885;28;20036;-65
2022/06/29 01:11:32;;;;;;;6.35;2.70;;;;;;;;;;5029822;28;20430;-65
2022/06/29 01:13:57;;;;;;;5.65;2.90;;;;;;;;;;5022573;28;20037;-65
2022/06/29 01:16:23;;;;;;;3.78;2.50;;;;;;;;;;5030244;28;20410;-65
2022/06/29 01:18:49;;;;;;;4.63;2.60;;;;;;;;;;5003561;28;20033;-65
2022/06/29 01:21:19;;;;;;;5.68;2.80;;;;;;;;;;5028592;28;20034;-65
2022/06/29 01:23:44;;;;;;;7.47;2.75;;;;;;;;;;5027168;28;20041;-65
2022/06/29 01:26:11;;;;;;;4.75;2.63;;;;;;;;;;5021955;28;20038;-65
2022/06/29 01:28:39;;;;;;;3.72;2.55;;;;;;;;;;5028452;28;20493;-65
2022/06/29 01:31:04;;;;;;;3.85;2.72;;;;;;;;;;5028669;28;20490;-65
2022/06/29 01:33:30;;;;;;;6.35;2.70;;;;;;;;;;5030725;28;20068;-65
2022/06/29 01:35:55;;;;;;;8.00;2.80;;;;;;;;;;5017837;28;20486;-65
2022/06/29 01:38:21;;;;;;;4.05;2.88;;;;;;;;;;5020423;28;20040;-65
2022/06/29 01:40:46;;;;;;;4.05;2.90;;;;;;;;;;5028141;28;20029;-65
2022/06/29 01:43:12;;;;;;;5.03;2.92;;;;;;;;;;5030375;28;20038;-65
2022/06/29 01:45:38;;;;;;;5.85;3.10;;;;;;;;;;5027440;28;20069;-65
2022/06/29 01:48:04;;;;;;;5.38;2.80;;;;;;;;;;5017226;28;20030;-65
2022/06/29 01:50:30;;;;;;;5.53;2.90;;;;;;;;;;5023333;28;20041;-65
2022/06/29 01:52:55;;;;;;;5.32;3.05;;;;;;;;;;5012372;28;20105;-64
2022/06/29 01:55:21;;;;;;;4.55;3.35;;;;;;;;;;5027391;28;20025;-65
2022/06/29 01:57:46;;;;;;;5.50;3.00;;;;;;;;;;5018140;28;20044;-65
2022/06/29 02:00:12;;;;;;;3.42;2.95;;;;;;;;;;5011496;28;20054;-65
2022/06/29 02:02:38;;;;;;;5.82;3.30;;;;;;;;;;5030444;28;20037;-65
2022/06/29 02:05:04;;;;;;;4.63;2.90;;;;;;;;;;5030045;28;20037;-65
2022/06/29 02:07:29;;;;;;;5.15;2.90;;;;;;;;;;5018861;28;20084;-65
2022/06/29 02:09:54;;;;;;;6.25;3.28;;;;;;;;;;5010424;28;20049;-65
2022/06/29 02:12:20;;;;;;;6.43;3.08;;;;;;;;;;5026608;28;20179;-65
2022/06/29 02:14:45;;;;;;;5.55;3.22;;;;;;;;;;5030157;28;20026;-65
2022/06/29 02:17:11;;;;;;;4.93;3.00;;;;;;;;;;5024789;28;20473;-65
2022/06/29 02:19:37;;;;;;;4.97;2.83;;;;;;;;;;5027909;28;20474;-65
2022/06/29 02:22:02;;;;;;;6.72;3.22;;;;;;;;;;5031841;28;20052;-65
2022/06/29 02:24:28;;;;;;;6.63;3.20;;;;;;;;;;5019467;28;20083;-65
2022/06/29 02:26:53;;;;;;;5.43;3.40;;;;;;;;;;5015079;28;20128;-65
2022/06/29 02:29:19;;;;;;;7.00;3.22;;;;;;;;;;5020258;28;20110;-65
2022/06/29 02:34:43;;;;;;;5.28;3.30;;;;;;;;;;5034607;28;20040;-65
2022/06/29 02:37:08;;;;;;;5.07;3.30;;;;;;;;;;5028535;28;20056;-65
2022/06/29 02:39:34;;;;;;;5.20;3.20;;;;;;;;;;5032911;28;20470;-65
2022/06/29 02:41:59;;;;;;;5.95;3.35;;;;;;;;;;5031031;28;20196;-65
2022/06/29 02:44:25;;;;;;;5.88;3.38;;;;;;;;;;5018319;28;20521;-65
2022/06/29 02:46:50;;;;;;;5.13;3.58;;;;;;;;;;5028594;28;20034;-65
2022/06/29 02:49:15;;;;;;;6.20;3.67;;;;;;;;;;5014516;28;20030;-65
2022/06/29 02:51:41;;;;;;;5.55;3.50;;;;;;;;;;5021449;28;20063;-65
2022/06/29 02:54:06;;;;;;;5.47;3.40;;;;;;;;;;5033649;28;20048;-65
2022/06/29 02:56:32;;;;;;;5.35;3.80;;;;;;;;;;5033163;28;20029;-65
2022/06/29 02:58:57;;;;;;;5.10;3.35;;;;;;;;;;5013774;28;20656;-65
2022/06/29 03:01:22;;;;;;;4.38;3.42;;;;;;;;;;5026067;28;20377;-65
2022/06/29 03:03:48;;;;;;;5.85;3.65;;;;;;;;;;5015632;28;20038;-65
2022/06/29 03:06:13;;;;;;;5.65;3.60;;;;;;;;;;5029664;28;20047;-65
2022/06/29 03:08:39;;;;;;;4.85;3.70;;;;;;;;;;5017190;28;20398;-65
2022/06/29 03:11:04;;;;;;;5.40;3.60;;;;;;;;;;5016147;28;21040;-65
2022/06/29 03:13:30;;;;;;;9.50;3.58;;;;;;;;;;5033662;28;20088;-65
2022/06/29 03:15:55;;;;;;;4.68;3.67;;;;;;;;;;5030217;28;20043;-65
2022/06/29 03:18:21;;;;;;;6.43;3.65;;;;;;;;;;5014483;28;20033;-65
2022/06/29 03:20:46;;;;;;;5.82;3.90;;;;;;;;;;5014620;28;20032;-59
2022/06/29 03:23:11;;;;;;;5.72;3.80;;;;;;;;;;5031749;28;20030;-58
2022/06/29 03:25:37;;;;;;;5.80;3.67;;;;;;;;;;5032085;28;20585;-59
2022/06/29 03:28:02;;;;;;;7.57;3.90;;;;;;;;;;5031651;28;20068;-58
2022/06/29 03:30:28;;;;;;;7.05;3.92;;;;;;;;;;5033366;28;20033;-59
2022/06/29 03:32:53;;;;;;;5.43;3.80;;;;;;;;;;5027242;28;20532;-57
2022/06/29 03:35:19;;;;;;;5.78;4.13;;;;;;;;;;5027670;28;20042;-70
2022/06/29 03:37:44;;;;;;;5.65;3.90;;;;;;;;;;5033066;28;20082;-69
2022/06/29 03:40:10;;;;;;;5.63;4.00;;;;;;;;;;5018779;28;20026;-69
2022/06/29 03:42:40;;;;;;;6.43;4.03;;;;;;;;;;5009231;28;20109;-70
2022/06/29 03:45:06;;;;;;;7.55;4.18;;;;;;;;;;5015258;28;20379;-70
2022/06/29 03:47:31;;;;;;;5.72;3.83;;;;;;;;;;5033634;28;20045;-70
2022/06/29 03:49:57;;;;;;;6.13;3.88;;;;;;;;;;5032683;28;20037;-69
2022/06/29 03:52:22;;;;;;;6.80;3.88;;;;;;;;;;5014937;28;20044;-69
2022/06/29 03:54:47;;;;;;;5.85;4.00;;;;;;;;;;5032933;28;20051;-69
2022/06/29 03:57:13;;;;;;;7.13;3.70;;;;;;;;;;5033481;28;20026;-69
2022/06/29 03:59:38;;;;;;;6.97;4.05;;;;;;;;;;5033503;28;20021;-70
2022/06/29 04:02:04;;;;;;;5.35;4.07;;;;;;;;;;5029932;28;20065;-69
2022/06/29 04:04:29;;;;;;;7.25;4.32;;;;;;;;;;5028508;28;20033;-70
2022/06/29 04:06:54;;;;;;;6.78;4.20;;;;;;;;;;5032474;28;20080;-69
2022/06/29 04:09:20;;;;;;;6.07;4.53;;;;;;;;;;5033561;28;20038;-70
2022/06/29 04:11:48;;;;;;;8.18;4.50;;;;;;;;;;5032739;28;20045;-69
2022/06/29 04:14:14;;;;;;;6.20;3.95;;;;;;;;;;5028686;28;20029;-68
2022/06/29 04:16:39;;;;;;;6.35;3.95;;;;;;;;;;5031768;28;20033;-68
2022/06/29 04:19:05;;;;;;;5.97;4.35;;;;;;;;;;5027292;28;20033;-68
2022/06/29 04:21:30;;;;;;;10.93;4.78;;;;;;;;;;5030316;28;20029;-69
2022/06/29 04:23:55;;;;;;;8.55;4.60;;;;;;;;;;5032222;28;20025;-68
2022/06/29 04:26:21;;;;;;;8.30;4.50;;;;;;;;;;5032785;28;20036;-68
2022/06/29 04:28:52;;;;;;;7.88;4.18;;;;;;;;;;5030976;28;20059;-68
2022/06/29 04:31:24;;;;;;;5.72;4.13;;;;;;;;;;5032127;28;20111;-69
2022/06/29 04:33:49;;;;;;;8.18;4.38;;;;;;;;;;5023949;28;20537;-69
2022/06/29 04:36:14;;;;;;;5.15;4.13;;;;;;;;;;5032429;28;20155;-69
2022/06/29 04:38:40;;;;;;;6.78;4.53;;;;;;;;;;5032038;28;20056;-68
2022/06/29 04:41:05;;;;;;;5.50;4.40;;;;;;;;;;5012360;28;20486;-69
2022/06/29 04:43:31;;;;;;;6.63;4.72;;;;;;;;;;5012846;28;20030;-69
2022/06/29 04:48:41;;;;;;;8.75;4.30;;;;;;;;;;5014086;28;20529;-68
2022/06/29 04:51:07;;;;;;;10.02;4.85;;;;;;;;;;5029487;28;20474;-68
2022/06/29 04:53:33;;;;;;;7.75;4.78;;;;;;;;;;5031954;28;20065;-70
2022/06/29 04:55:58;;;;;;;7.25;4.80;;;;;;;;;;5021210;28;20340;-68
2022/06/29 04:58:24;;;;;;;6.88;4.28;;;;;;;;;;5012719;28;20473;-69
2022/06/29 05:00:49;;;;;;;6.10;4.70;;;;;;;;;;5012832;28;20030;-68
2022/06/29 05:03:14;;;;;;;7.63;4.93;;;;;;;;;;5012327;28;20485;-69
2022/06/29 05:05:40;;;;;;;9.80;4.93;;;;;;;;;;5012626;28;20038;-69
2022/06/29 05:08:06;;;;;;;7.75;4.78;;;;;;;;;;5012412;28;20051;-69
2022/06/29 05:10:31;;;;;;;10.40;5.00;;;;;;;;;;5025874;28;20061;-69
2022/06/29 05:12:57;;;;;;;8.35;5.30;;;;;;;;;;5014729;28;20463;-69
2022/06/29 05:15:23;;;;;;;7.72;5.03;;;;;;;;;;5012798;28;20501;-70
2022/06/29 05:17:48;;;;;;;10.75;5.15;;;;;;;;;;5012085;28;20022;-68
2022/06/29 05:20:14;;;;;;;8.07;5.10;;;;;;;;;;5013015;28;20386;-69
2022/06/29 05:22:39;;;;;;;6.85;5.10;;;;;;;;;;5012637;28;20479;-70
2022/06/29 05:25:06;;;;;;;7.07;5.10;;;;;;;;;;5017498;28;20036;-69
2022/06/29 05:27:32;;;;;;;7.45;4.97;;;;;;;;;;5013525;28;20042;-69
2022/06/29 05:29:58;;;;;;;7.32;5.50;;;;;;;;;;5011860;28;20436;-69
2022/06/29 05:32:24;;;;;;;8.68;5.80;;;;;;;;;;5031874;28;20040;-70
2022/06/29 05:34:49;;;;;;;8.18;5.85;;;;;;;;;;5029028;28;20385;-68
2022/06/29 05:37:15;;;;;;;8.52;5.22;;;;;;;;;;5028379;28;20034;-69
2022/06/29 05:39:42;;;;;;;8.63;5.70;;;;;;;;;;5026037;28;20386;-69
2022/06/29 05:42:08;;;;;;;10.02;5.95;;;;;;;;;;5011754;28;20034;-69
2022/06/29 05:44:33;;;;;;;10.15;5.75;;;;;;;;;;4994634;28;20386;-69
2022/06/29 05:46:59;;;;;;;9.60;5.72;;;;;;;;;;5027797;28;20030;-69
2022/06/29 05:49:24;;;;;;;9.70;5.40;;;;;;;;;;5031911;28;20033;-69
2022/06/29 05:51:50;;;;;;;7.53;5.07;;;;;;;;;;5033199;28;20111;-69
2022/06/29 05:54:15;;;;;;;8.40;5.22;;;;;;;;;;5035421;28;20053;-69
2022/06/29 05:56:40;;;;;;;8.40;4.93;;;;;;;;;;5034764;28;20037;-69
2022/06/29 05:59:06;;;;;;;8.05;4.80;;;;;;;;;;5033995;28;20030;-70
2022/06/29 06:01:32;;;;;;;8.43;4.78;;;;;;;;;;5023207;28;20072;-70
2022/06/29 06:03:57;;;;;;;6.93;4.82;;;;;;;;;;5015789;28;20109;-69
2022/06/29 06:06:22;;;;;;;7.85;4.70;;;;;;;;;;5025239;28;20068;-70
2022/06/29 06:08:48;;;;;;;8.43;5.10;;;;;;;;;;5035904;28;20424;-70
2022/06/29 06:11:20;;;;;;;9.55;4.63;;;;;;;;;;5034725;28;20108;-71
2022/06/29 06:14:00;;;;;;;6.80;4.55;;;;;;;;;;5035377;28;20466;-69
2022/06/29 06:16:25;;;;;;;7.28;4.28;;;;;;;;;;5022391;28;20080;-70
2022/06/29 06:18:51;;;;;;;11.00;4.05;;;;;;;;;;5016480;28;20030;-68
2022/06/29 06:21:16;;;;;;;8.93;4.78;;;;;;;;;;5035299;28;20033;-70
2022/06/29 06:23:42;;;;;;;8.05;4.32;;;;;;;;;;5035373;28;20037;-70
2022/06/29 06:26:07;;;;;;;6.30;3.88;;;;;;;;;;5025553;28;20080;-69
2022/06/29 06:28:32;;;;;;;8.18;4.30;;;;;;;;;;5015820;28;20475;-70
2022/06/29 06:30:58;;;;;;;7.05;4.20;;;;;;;;;;5014831;28;20066;-69
2022/06/29 06:33:24;;;;;;;6.25;3.88;;;;;;;;;;5011629;28;20362;-69
2022/06/29 06:35:49;;;;;;;7.25;3.97;;;;;;;;;;5014316;28;20022;-69
2022/06/29 06:38:15;;;;;;;8.45;4.03;;;;;;;;;;5033566;28;20032;-70
2022/06/29 06:43:25;;;;;;;9.35;3.70;;;;;;;;;;5035229;28;20131;-69
2022/06/29 06:45:50;;;;;;;6.72;3.80;;;;;;;;;;5027969;28;20057;-70
2022/06/29 06:48:16;;;;;;;5.78;3.58;;;;;;;;;;5014551;28;20113;-70
2022/06/29 06:50:41;;;;;;;6.32;3.42;;;;;;;;;;5024789;28;20368;-69
2022/06/29 06:53:07;;;;;;;6.88;3.58;;;;;;;;;;5033356;28;20084;-69
2022/06/29 06:55:32;;;;;;;6.93;3.60;;;;;;;;;;5030557;28;20037;-69
2022/06/29 06:57:57;;;;;;;9.77;3.30;;;;;;;;;;5014770;28;20022;-69
2022/06/29 07:00:23;;;;;;;8.00;3.78;;;;;;;;;;5014713;28;20036;-69
2022/06/29 07:02:48;;;;;;;8.75;3.90;;;;;;;;;;5013787;28;20030;-69
2022/06/29 07:05:14;;;;;;;8.95;4.22;;;;;;;;;;5013453;28;20029;-69
2022/06/29 07:07:39;;;;;;;7.72;3.70;;;;;;;;;;5021769;28;20037;-68
2022/06/29 07:10:05;;;;;;;7.45;3.72;;;;;;;;;;5032558;28;20029;-69
2022/06/29 07:12:30;;;;;;;6.82;3.70;;;;;;;;;;5034357;28;20064;-70
2022/06/29 07:14:56;;;;;;;7.50;3.65;;;;;;;;;;5022306;28;20030;-69
2022/06/29 07:17:21;;;;;;;6.75;4.18;;;;;;;;;;5032593;28;20045;-70
2022/06/29 07:19:47;;;;;;;6.63;3.58;;;;;;;;;;5031648;28;20025;-69
2022/06/29 07:22:12;;;;;;;9.57;4.15;;;;;;;;;;5029501;28;20454;-70
2022/06/29 07:24:37;;;;;;;13.18;4.35;;;;;;;;;;5026774;28;20030;-69
2022/06/29 07:27:03;;;;;;;6.80;3.88;;;;;;;;;;5013845;28;20034;-69
2022/06/29 07:29:29;;;;;;;7.55;4.18;;;;;;;;;;5014480;28;20161;-70
2022/06/29 07:31:54;;;;;;;11.25;4.35;;;;;;;;;;5021935;28;20040;-69
2022/06/29 07:34:20;;;;;;;12.10;4.35;;;;;;;;;;5029322;28;20448;-69
2022/06/29 07:36:45;;;;;;;9.75;3.92;;;;;;;;;;5023001;28;20037;-69
2022/06/29 07:39:11;;;;;;;7.55;3.88;;;;;;;;;;5032526;28;20029;-69
2022/06/29 07:41:36;;;;;;;6.25;3.50;;;;;;;;;;5011404;28;20030;-70
2022/06/29 07:44:03;;;;;;;5.85;3.67;;;;;;;;;;5013318;28;20364;-69
2022/06/29 07:46:29;;;;;;;7.30;3.70;;;;;;;;;;5013815;28;20030;-70
2022/06/29 07:48:54;;;;;;;7.93;3.22;;;;;;;;;;5014549;28;20025;-70
2022/06/29 07:51:20;;;;;;;8.77;3.63;;;;;;;;;;5014479;28;20049;-69
2022/06/29 07:53:45;;;;;;;8.57;3.50;;;;;;;;;;5029856;28;20053;-69
2022/06/29 07:56:11;;;;;;;8.85;4.03;;;;;;;;;;5014107;28;20112;-69
2022/06/29 07:58:36;;;;;;;6.57;3.60;;;;;;;;;;5033667;28;20109;-70
2022/06/29 08:01:01;;;;;;;8.23;3.80;;;;;;;;;;5022720;28;20111;-69
2022/06/29 08:03:27;;;;;;;9.23;3.70;;;;;;;;;;5013494;28;20057;-70
2022/06/29 08:05:52;;;;;;;9.25;3.95;;;;;;;;;;5013597;28;20508;-69
2022/06/29 08:08:17;;;;;;;8.80;4.00;;;;;;;;;;5020733;28;20038;-69
2022/06/29 08:10:43;;;;;;;6.80;4.03;;;;;;;;;;5025490;28;20033;-69
2022/06/29 08:13:08;;;;;;;7.47;4.03;;;;;;;;;;5029794;28;20029;-69
2022/06/29 08:15:35;;;;;;;5.63;3.55;;;;;;;;;;5032544;28;20029;-70
2022/06/29 08:18:01;;;;;;;7.82;3.83;;;;;;;;;;5032516;28;20139;-69
2022/06/29 08:20:28;;;;;;;7.85;3.90;;;;;;;;;;5030332;28;20112;-70
2022/06/29 08:22:53;;;;;;;9.85;5.60;;;;;;;;;;5032244;28;20363;-69
2022/06/29 08:25:19;;;;;;;15.32;6.80;;;;;;;;;;5032454;28;20508;-70
2022/06/29 08:27:51;;;;;;;11.13;6.00;;;;;;;;;;5032976;28;20389;-70
2022/06/29 08:30:17;;;;;;;12.52;5.30;;;;;;;;;;5032180;28;20094;-70
2022/06/29 08:32:44;;;;;;;12.82;5.38;;;;;;;;;;5032772;28;20036;-70
2022/06/29 08:35:11;;;;;;;9.25;3.97;;;;;;;;;;5032097;28;20462;-69
2022/06/29 08:37:37;;;;;;;9.13;4.53;;;;;;;;;;5032744;28;20045;-70
2022/06/29 08:40:05;;;;;;;6.20;4.13;;;;;;;;;;5024181;28;20126;-69
2022/06/29 08:42:30;;;;;;;8.50;4.30;;;;;;;;;;5016836;28;20460;-70
2022/06/29 08:44:57;;;;;;;9.90;3.42;;;;;;;;;;5033061;28;20482;-70
2022/06/29 08:47:23;;;;;;;6.60;3.30;;;;;;;;;;5031929;28;20060;-70
2022/06/29 08:49:48;;;;;;;6.72;3.30;;;;;;;;;;5032661;28;20466;-70
2022/06/29 08:52:15;;;;;;;4.70;3.30;;;;;;;;;;5031735;28;20025;-71
2022/06/29 08:54:46;;;;;;;9.82;3.30;;;;;;;;;;5032182;28;20049;-69
2022/06/29 08:57:12;;;;;;;9.52;3.30;;;;;;;;;;5014245;28;20462;-69
2022/06/29 08:59:37;;;;;;;7.85;3.20;;;;;;;;;;5015112;28;20144;-69
2022/06/29 09:02:03;;;;;;;4.10;3.08;;;;;;;;;;5012116;28;20060;-69
2022/06/29 09:04:29;;;;;;;5.72;3.20;;;;;;;;;;5013073;28;20029;-69
2022/06/29 09:06:56;;;;;;;8.75;3.53;;;;;;;;;;5013821;28;20030;-70
2022/06/29 09:09:22;;;;;;;7.40;3.45;;;;;;;;;;5013271;28;20033;-70
2022/06/29 09:11:53;;;;;;;11.45;4.05;;;;;;;;;;5031487;28;20124;-69
2022/06/29 09:14:21;;;;;;;7.07;3.47;;;;;;;;;;5016988;28;20033;-69
2022/06/29 09:17:00;;;;;;;7.05;3.40;;;;;;;;;;5012508;28;20095;-68
2022/06/29 09:19:42;;;;;;;7.20;3.63;;;;;;;;;;5019156;28;20059;-68
2022/06/29 09:22:08;;;;;;;8.65;3.30;;;;;;;;;;5028659;28;20108;-70
2022/06/29 09:24:34;;;;;;;5.70;3.50;;;;;;;;;;5030822;28;20152;-70
2022/06/29 09:27:02;;;;;;;7.68;3.22;;;;;;;;;;5030942;28;20032;-70
2022/06/29 09:29:33;;;;;;;6.72;3.47;;;;;;;;;;5031116;28;20029;-69
2022/06/29 09:32:04;;;;;;;10.45;3.40;;;;;;;;;;5032014;28;20029;-70
2022/06/29 09:34:33;;;;;;;6.82;3.60;;;;;;;;;;5029943;28;20150;-70
2022/06/29 09:37:00;;;;;;;7.20;3.75;;;;;;;;;;5025036;28;20506;-70
2022/06/29 09:39:42;;;;;;;6.90;3.10;;;;;;;;;;5028046;28;20034;-70
2022/06/29 09:42:16;;;;;;;7.88;3.40;;;;;;;;;;5029078;28;20029;-71
2022/06/29 09:44:42;;;;;;;13.70;3.58;;;;;;;;;;5011764;28;20108;-70
2022/06/29 09:47:12;;;;;;;5.75;3.50;;;;;;;;;;5011290;28;20467;-70
2022/06/29 09:49:38;;;;;;;7.35;3.60;;;;;;;;;;5016779;28;20030;-68
2022/06/29 09:52:06;;;;;;;5.05;3.50;;;;;;;;;;5031179;28;20048;-67
2022/06/29 09:54:45;;;;;;;10.32;3.55;;;;;;;;;;5029679;28;20068;-68
2022/06/29 09:57:12;;;;;;;11.45;3.53;;;;;;;;;;5014760;28;20030;-70
2022/06/29 10:02:47;;;;;;;6.03;3.00;;;;;;;;;;5011909;28;20501;-71
2022/06/29 10:05:15;;;;;;;7.22;3.15;;;;;;;;;;5011109;28;20034;-68
2022/06/29 10:07:45;;;;;;;10.50;3.60;;;;;;;;;;5012155;28;20026;-70
2022/06/29 10:10:21;;;;;;;14.23;3.20;;;;;;;;;;5012084;28;20118;-68
2022/06/29 10:13:39;;;;;;;17.45;3.30;;;;;;;;;;5011957;28;20069;-69
2022/06/29 10:16:21;;;;;;;9.35;3.15;;;;;;;;;;5022941;28;20493;-68
2022/06/29 10:19:08;;;;;;;7.70;3.20;;;;;;;;;;5014297;28;20034;-68
2022/06/29 10:21:34;;;;;;;8.15;3.72;;;;;;;;;;5011812;28;20141;-68
2022/06/29 10:24:01;;;;;;;6.25;3.33;;;;;;;;;;5011992;28;20030;-69
2022/06/29 10:26:33;;;;;;;6.97;3.22;;;;;;;;;;5011143;28;20072;-68
2022/06/29 10:29:23;;;;;;;7.15;3.20;;;;;;;;;;5011737;28;20030;-69
2022/06/29 10:31:56;;;;;;;5.65;2.95;;;;;;;;;;5011919;28;20045;-69
2022/06/29 10:34:31;;;;;;;8.07;3.13;;;;;;;;;;5020880;28;20394;-70
2022/06/29 10:37:02;;;;;;;10.98;3.60;;;;;;;;;;5031422;28;20037;-68
2022/06/29 10:39:50;;;;;;;5.35;3.28;;;;;;;;;;5031965;28;20036;-71
2022/06/29 10:45:16;;;;;;;12.35;3.58;;;;;;;;;;5025311;28;20102;-70
2022/06/29 10:47:45;;;;;;;7.65;2.97;;;;;;;;;;5034721;28;20025;-68
2022/06/29 10:50:13;;;;;;;17.80;3.50;;;;;;;;;;5029539;28;20029;-70
2022/06/29 10:52:39;;;;;;;6.43;2.95;;;;;;;;;;5034234;28;20124;-69
2022/06/29 10:55:06;;;;;;;6.10;3.20;;;;;;;;;;5034874;28;20108;-69
2022/06/29 10:57:36;;;;;;;9.90;2.88;;;;;;;;;;5033771;28;20034;-69
2022/06/29 11:00:08;;;;;;;6.82;3.00;;;;;;;;;;5034066;28;20478;-69
2022/06/29 11:02:34;;;;;;;7.82;2.95;;;;;;;;;;5034577;28;20044;-69
2022/06/29 11:05:00;;;;;;;8.63;3.00;;;;;;;;;;5033342;28;20477;-70
2022/06/29 11:12:55;;;;;;;7.65;3.15;;;;;;;;;;5033714;28;20063;-69
2022/06/29 11:15:47;;;;;;;5.80;2.88;;;;;;;;;;5027867;28;20117;-70
2022/06/29 11:18:30;;;;;;;5.70;2.60;;;;;;;;;;5014033;28;20067;-69
2022/06/29 11:21:02;;;;;;;9.70;3.05;;;;;;;;;;5014306;28;20359;-69
2022/06/29 11:23:30;;;;;;;8.18;3.05;;;;;;;;;;5013756;28;20497;-69
2022/06/29 11:25:56;;;;;;;6.00;2.70;;;;;;;;;;5014590;28;20036;-69
2022/06/29 11:28:29;;;;;;;9.35;3.28;;;;;;;;;;5014251;28;20061;-69
2022/06/29 11:31:02;;;;;;;7.85;2.72;;;;;;;;;;5014108;28;20048;-69
2022/06/29 11:33:29;;;;;;;4.65;2.70;;;;;;;;;;5013780;28;20026;-69
2022/06/29 11:35:55;;;;;;;8.35;2.90;;;;;;;;;;5019849;28;20375;-70
2022/06/29 11:38:26;;;;;;;7.38;2.97;;;;;;;;;;5028793;28;20438;-69
2022/06/29 11:40:54;;;;;;;5.55;2.90;;;;;;;;;;5023106;28;20335;-69
2022/06/29 11:43:20;;;;;;;8.10;2.92;;;;;;;;;;5013547;28;20033;-69
2022/06/29 11:45:46;;;;;;;9.02;2.92;;;;;;;;;;5017974;28;20025;-71
2022/06/29 11:48:26;;;;;;;8.27;2.80;;;;;;;;;;5020673;28;20026;-69
2022/06/29 11:51:01;;;;;;;7.00;2.97;;;;;;;;;;5025178;28;20045;-70
2022/06/29 11:53:52;;;;;;;4.80;2.72;;;;;;;;;;5013223;28;20053;-69
2022/06/29 11:56:23;;;;;;;9.23;3.22;;;;;;;;;;5012516;28;20101;-69
2022/06/29 11:58:50;;;;;;;11.63;3.05;;;;;;;;;;5013737;28;20043;-69
2022/06/29 12:01:18;;;;;;;9.35;2.90;;;;;;;;;;5012885;28;20461;-69
2022/06/29 12:03:58;;;;;;;6.07;2.83;;;;;;;;;;5014837;28;20034;-70
2022/06/29 12:06:26;;;;;;;9.20;3.00;;;;;;;;;;5032535;28;20244;-69
2022/06/29 12:08:52;;;;;;;12.40;3.05;;;;;;;;;;5017724;28;20117;-69
2022/06/29 12:11:18;;;;;;;5.63;2.65;;;;;;;;;;5026044;28;20406;-69
2022/06/29 12:13:44;;;;;;;6.32;3.10;;;;;;;;;;5033242;28;20041;-69
2022/06/29 12:16:10;;;;;;;6.13;2.80;;;;;;;;;;5030670;28;20561;-70
2022/06/29 12:18:36;;;;;;;5.70;3.08;;;;;;;;;;5031552;28;20060;-69
2022/06/29 12:21:01;;;;;;;6.72;3.10;;;;;;;;;;5027262;28;20065;-69
2022/06/29 12:23:28;;;;;;;6.78;3.10;;;;;;;;;;5031877;28;20033;-69
2022/06/29 12:25:54;;;;;;;10.27;3.30;;;;;;;;;;5032948;28;20398;-69
2022/06/29 12:28:19;;;;;;;7.45;3.40;;;;;;;;;;5032123;28;20029;-69
2022/06/29 12:30:45;;;;;;;10.45;3.50;;;;;;;;;;5021469;28;20391;-69
2022/06/29 12:33:10;;;;;;;6.65;3.17;;;;;;;;;;5013534;28;20481;-70
2022/06/29 12:35:36;;;;;;;10.82;3.50;;;;;;;;;;5016432;28;20061;-69
2022/06/29 12:38:02;;;;;;;7.93;3.30;;;;;;;;;;5032825;28;20366;-70
2022/06/29 12:40:31;;;;;;;12.25;3.60;;;;;;;;;;5020733;28;20068;-70
2022/06/29 12:42:57;;;;;;;6.78;3.58;;;;;;;;;;5013055;28;20026;-69
2022/06/29 12:45:26;;;;;;;10.38;3.60;;;;;;;;;;5011760;28;20391;-69
2022/06/29 12:47:52;;;;;;;12.55;3.17;;;;;;;;;;5012769;28;20026;-69
2022/06/29 12:50:18;;;;;;;9.30;3.20;;;;;;;;;;4994470;28;20038;-69
2022/06/29 12:52:47;;;;;;;7.55;3.10;;;;;;;;;;5028881;28;20470;-69
2022/06/29 12:55:14;;;;;;;7.30;3.38;;;;;;;;;;5013456;28;20116;-69
2022/06/29 12:57:40;;;;;;;9.70;3.80;;;;;;;;;;5015992;28;20144;-69
2022/06/29 13:00:08;;;;;;;6.93;2.92;;;;;;;;;;5032321;28;20036;-70
2022/06/29 13:02:34;;;;;;;8.82;3.50;;;;;;;;;;5030861;28;20056;-69
2022/06/29 13:04:59;;;;;;;7.28;3.28;;;;;;;;;;5032419;28;20061;-70
2022/06/29 13:07:26;;;;;;;9.30;3.28;;;;;;;;;;5011770;28;20025;-69
2022/06/29 13:09:55;;;;;;;7.43;4.00;;;;;;;;;;5012963;28;20033;-69
2022/06/29 13:12:22;;;;;;;5.77;3.13;;;;;;;;;;5012442;28;20057;-69
2022/06/29 13:14:48;;;;;;;9.25;3.45;;;;;;;;;;5014108;28;20128;-69
2022/06/29 13:17:14;;;;;;;6.28;3.10;;;;;;;;;;5017279;28;20466;-69
2022/06/29 13:19:40;;;;;;;9.50;3.38;;;;;;;;;;5031480;28;20035;-69
2022/06/29 13:22:06;;;;;;;4.75;2.90;;;;;;;;;;5023065;28;20053;-69
2022/06/29 13:24:32;;;;;;;5.03;2.80;;;;;;;;;;5031708;28;20126;-69
2022/06/29 13:26:57;;;;;;;7.05;3.20;;;;;;;;;;5015234;28;20038;-69
2022/06/29 13:29:22;;;;;;;11.20;3.25;;;;;;;;;;5011739;28;20378;-69
2022/06/29 13:31:48;;;;;;;8.50;3.13;;;;;;;;;;5012531;28;20034;-69
2022/06/29 13:34:13;;;;;;;10.02;2.97;;;;;;;;;;5013084;28;20034;-69
2022/06/29 13:36:39;;;;;;;3.90;2.85;;;;;;;;;;5024066;28;20030;-69
2022/06/29 13:39:05;;;;;;;10.93;3.20;;;;;;;;;;5032230;28;20037;-69
2022/06/29 13:41:31;;;;;;;6.30;3.10;;;;;;;;;;5031347;28;20481;-69
2022/06/29 13:43:56;;;;;;;7.95;3.10;;;;;;;;;;5032003;28;20033;-69
2022/06/29 13:46:21;;;;;;;5.05;2.90;;;;;;;;;;5021341;28;20037;-69
2022/06/29 13:48:47;;;;;;;12.70;3.17;;;;;;;;;;5012279;28;20029;-69
2022/06/29 13:51:12;;;;;;;8.18;3.30;;;;;;;;;;5012769;28;20112;-69
2022/06/29 13:53:38;;;;;;;5.47;3.03;;;;;;;;;;5027823;28;20092;-69
2022/06/29 13:56:05;;;;;;;8.25;3.22;;;;;;;;;;5019639;28;20037;-70
2022/06/29 13:58:30;;;;;;;6.05;3.05;;;;;;;;;;5031317;28;20068;-69
2022/06/29 14:00:56;;;;;;;7.25;2.97;;;;;;;;;;5031614;28;20057;-69
2022/06/29 14:03:21;;;;;;;7.85;2.60;;;;;;;;;;5031076;28;20499;-69
2022/06/29 14:05:46;;;;;;;6.75;2.67;;;;;;;;;;5030908;28;20021;-69
2022/06/29 14:08:12;;;;;;;6.35;2.80;;;;;;;;;;5031534;28;20367;-69
2022/06/29 14:10:38;;;;;;;6.55;2.60;;;;;;;;;;5029816;28;20525;-70
2022/06/29 14:13:03;;;;;;;6.50;2.42;;;;;;;;;;5033729;28;20030;-70
2022/06/29 14:15:28;;;;;;;8.02;2.38;;;;;;;;;;5029932;28;20069;-70
2022/06/29 14:17:54;;;;;;;5.32;2.60;;;;;;;;;;5015711;28;20042;-70
2022/06/29 14:20:20;;;;;;;3.90;2.35;;;;;;;;;;5022524;28;20034;-69
2022/06/29 14:22:45;;;;;;;6.47;2.40;;;;;;;;;;5034371;28;20029;-70
2022/06/29 14:25:11;;;;;;;4.60;2.60;;;;;;;;;;5025536;28;20031;-70
2022/06/29 14:27:37;;;;;;;6.22;2.65;;;;;;;;;;5033399;28;20045;-69
2022/06/29 14:30:04;;;;;;;5.97;2.55;;;;;;;;;;5034581;28;20025;-69
2022/06/29 14:32:29;;;;;;;7.40;2.90;;;;;;;;;;5034359;28;20045;-69
2022/06/29 14:34:55;;;;;;;5.00;2.75;;;;;;;;;;5035141;28;20030;-69
2022/06/29 14:37:21;;;;;;;4.68;2.75;;;;;;;;;;5026889;28;20041;-69
2022/06/29 14:39:47;;;;;;;5.88;2.85;;;;;;;;;;5015287;28;20395;-70
2022/06/29 14:42:13;;;;;;;3.55;2.60;;;;;;;;;;5016894;28;20131;-69
2022/06/29 14:44:38;;;;;;;5.20;3.00;;;;;;;;;;5033874;28;20102;-68
2022/06/29 14:47:04;;;;;;;5.55;2.85;;;;;;;;;;5033018;28;20525;-68
2022/06/29 14:49:30;;;;;;;5.78;3.05;;;;;;;;;;5032579;28;20037;-68
2022/06/29 14:51:56;;;;;;;5.97;3.00;;;;;;;;;;5034698;28;20040;-68
2022/06/29 14:54:22;;;;;;;8.32;3.10;;;;;;;;;;5030078;28;20045;-69
2022/06/29 14:56:47;;;;;;;7.53;3.00;;;;;;;;;;5022043;28;20056;-69
2022/06/29 14:59:12;;;;;;;7.72;3.10;;;;;;;;;;5015090;28;20416;-68